sensor_id;sensor_type;location;lat;lon;timestamp;P1;durP1;ratioP1;P2;durP2;ratioP2
35048;SDS011;21236;48.740;-3.446;2022-10-16T00:00:34;5.80;;;1.50;;
35048;SDS011;21236;48.740;-3.446;2022-10-16T00:03:01;8.95;;;1.88;;
35048;SDS011;21236;48.740;-3.446;2022-10-16T00:05:27;5.88;;;2.28;;
35048;SDS011;21236;48.740;-3.446;2022-10-16T00:07:53;8.80;;;2.22;;
35048;SDS011;21236;48.740;-3.446;2022-10-16T00:10:19;7.38;;;1.60;;
35048;SDS011;21236;48.740;-3.446;2022-10-16T00:12:45;9.77;;;1.52;;
35048;SDS011;21236;48.740;-3.446;2022-10-16T00:15:11;9.45;;;1.50;;
35048;SDS011;21236;48.740;-3.446;2022-10-16T00:17:38;7.10;;;1.60;;
35048;SDS011;21236;48.740;-3.446;2022-10-16T00:20:04;7.57;;;1.60;;
35048;SDS011;21236;48.740;-3.446;2022-10-16T00:22:31;12.32;;;1.83;;
35048;SDS011;21236;48.740;-3.446;2022-10-16T00:24:57;14.80;;;1.98;;
35048;SDS011;21236;48.740;-3.446;2022-10-16T00:27:23;11.25;;;3.00;;
35048;SDS011;21236;48.740;-3.446;2022-10-16T00:29:49;3.83;;;1.42;;
35048;SDS011;21236;48.740;-3.446;2022-10-16T00:32:16;8.93;;;1.70;;
35048;SDS011;21236;48.740;-3.446;2022-10-16T00:34:42;6.00;;;1.55;;
35048;SDS011;21236;48.740;-3.446;2022-10-16T00:37:09;8.77;;;1.80;;
35048;SDS011;21236;48.740;-3.446;2022-10-16T00:39:35;10.32;;;2.28;;
35048;SDS011;21236;48.740;-3.446;2022-10-16T00:42:01;6.70;;;1.27;;
35048;SDS011;21236;48.740;-3.446;2022-10-16T00:47:17;2.83;;;1.30;;
35048;SDS011;21236;48.740;-3.446;2022-10-16T00:49:45;12.50;;;2.13;;
35048;SDS011;21236;48.740;-3.446;2022-10-16T00:52:12;8.23;;;2.10;;
35048;SDS011;21236;48.740;-3.446;2022-10-16T00:54:39;9.90;;;2.53;;
35048;SDS011;21236;48.740;-3.446;2022-10-16T00:57:05;7.97;;;1.58;;
35048;SDS011;21236;48.740;-3.446;2022-10-16T00:59:33;6.43;;;1.60;;
35048;SDS011;21236;48.740;-3.446;2022-10-16T01:01:59;10.20;;;1.60;;
35048;SDS011;21236;48.740;-3.446;2022-10-16T01:04:26;5.20;;;1.48;;
35048;SDS011;21236;48.740;-3.446;2022-10-16T01:09:23;13.77;;;1.98;;
35048;SDS011;21236;48.740;-3.446;2022-10-16T01:12:04;5.53;;;1.45;;
35048;SDS011;21236;48.740;-3.446;2022-10-16T01:14:40;4.97;;;1.40;;
35048;SDS011;21236;48.740;-3.446;2022-10-16T01:17:12;7.30;;;1.80;;
35048;SDS011;21236;48.740;-3.446;2022-10-16T01:22:10;10.43;;;1.98;;
35048;SDS011;21236;48.740;-3.446;2022-10-16T01:24:40;12.77;;;1.70;;
35048;SDS011;21236;48.740;-3.446;2022-10-16T01:27:27;7.43;;;1.20;;
35048;SDS011;21236;48.740;-3.446;2022-10-16T01:30:29;4.30;;;1.63;;
35048;SDS011;21236;48.740;-3.446;2022-10-16T01:32:55;8.32;;;1.58;;
35048;SDS011;21236;48.740;-3.446;2022-10-16T01:35:25;6.38;;;1.27;;
35048;SDS011;21236;48.740;-3.446;2022-10-16T01:40:25;8.45;;;1.23;;
35048;SDS011;21236;48.740;-3.446;2022-10-16T01:42:53;12.70;;;2.83;;
35048;SDS011;21236;48.740;-3.446;2022-10-16T01:45:21;7.90;;;1.88;;
35048;SDS011;21236;48.740;-3.446;2022-10-16T01:47:48;5.25;;;1.25;;
35048;SDS011;21236;48.740;-3.446;2022-10-16T01:50:15;8.77;;;1.33;;
35048;SDS011;21236;48.740;-3.446;2022-10-16T01:52:43;6.50;;;1.55;;
35048;SDS011;21236;48.740;-3.446;2022-10-16T01:55:11;7.15;;;1.70;;
35048;SDS011;21236;48.740;-3.446;2022-10-16T01:57:38;6.32;;;1.40;;
35048;SDS011;21236;48.740;-3.446;2022-10-16T02:00:08;9.43;;;1.90;;
35048;SDS011;21236;48.740;-3.446;2022-10-16T02:02:42;13.45;;;1.50;;
35048;SDS011;21236;48.740;-3.446;2022-10-16T02:05:13;13.43;;;1.50;;
35048;SDS011;21236;48.740;-3.446;2022-10-16T02:07:41;3.88;;;1.10;;
35048;SDS011;21236;48.740;-3.446;2022-10-16T02:10:07;8.50;;;1.55;;
35048;SDS011;21236;48.740;-3.446;2022-10-16T02:12:34;5.07;;;1.10;;
35048;SDS011;21236;48.740;-3.446;2022-10-16T02:15:01;6.95;;;1.20;;
35048;SDS011;21236;48.740;-3.446;2022-10-16T02:17:28;8.15;;;1.33;;
35048;SDS011;21236;48.740;-3.446;2022-10-16T02:19:54;7.13;;;1.40;;
35048;SDS011;21236;48.740;-3.446;2022-10-16T02:24:51;4.07;;;1.20;;
35048;SDS011;21236;48.740;-3.446;2022-10-16T02:29:49;10.70;;;1.38;;
35048;SDS011;21236;48.740;-3.446;2022-10-16T02:32:19;8.30;;;1.50;;
35048;SDS011;21236;48.740;-3.446;2022-10-16T02:34:47;5.53;;;1.40;;
35048;SDS011;21236;48.740;-3.446;2022-10-16T02:37:14;8.40;;;1.05;;
35048;SDS011;21236;48.740;-3.446;2022-10-16T02:39:40;12.00;;;1.15;;
35048;SDS011;21236;48.740;-3.446;2022-10-16T02:42:11;9.82;;;1.38;;
35048;SDS011;21236;48.740;-3.446;2022-10-16T02:44:38;4.53;;;1.00;;
35048;SDS011;21236;48.740;-3.446;2022-10-16T02:47:04;6.30;;;2.70;;
35048;SDS011;21236;48.740;-3.446;2022-10-16T02:49:30;4.07;;;1.27;;
35048;SDS011;21236;48.740;-3.446;2022-10-16T02:51:56;3.95;;;1.00;;
35048;SDS011;21236;48.740;-3.446;2022-10-16T02:54:22;3.33;;;0.93;;
35048;SDS011;21236;48.740;-3.446;2022-10-16T02:56:49;8.48;;;1.27;;
35048;SDS011;21236;48.740;-3.446;2022-10-16T02:59:15;4.88;;;1.02;;
35048;SDS011;21236;48.740;-3.446;2022-10-16T03:01:41;2.67;;;1.10;;
35048;SDS011;21236;48.740;-3.446;2022-10-16T03:04:07;8.90;;;1.45;;
35048;SDS011;21236;48.740;-3.446;2022-10-16T03:06:35;2.42;;;1.00;;
35048;SDS011;21236;48.740;-3.446;2022-10-16T03:09:01;3.03;;;0.70;;
35048;SDS011;21236;48.740;-3.446;2022-10-16T03:11:28;9.38;;;0.93;;
35048;SDS011;21236;48.740;-3.446;2022-10-16T03:13:54;4.97;;;1.08;;
35048;SDS011;21236;48.740;-3.446;2022-10-16T03:16:20;3.75;;;0.90;;
35048;SDS011;21236;48.740;-3.446;2022-10-16T03:18:49;5.80;;;1.02;;
35048;SDS011;21236;48.740;-3.446;2022-10-16T03:21:15;3.72;;;1.00;;
35048;SDS011;21236;48.740;-3.446;2022-10-16T03:23:41;4.10;;;0.98;;
35048;SDS011;21236;48.740;-3.446;2022-10-16T03:26:07;3.70;;;0.85;;
35048;SDS011;21236;48.740;-3.446;2022-10-16T03:28:34;1.15;;;0.85;;
35048;SDS011;21236;48.740;-3.446;2022-10-16T03:31:00;2.38;;;1.00;;
35048;SDS011;21236;48.740;-3.446;2022-10-16T03:33:26;6.15;;;0.98;;
35048;SDS011;21236;48.740;-3.446;2022-10-16T03:35:52;8.00;;;1.15;;
35048;SDS011;21236;48.740;-3.446;2022-10-16T03:38:19;4.90;;;1.15;;
35048;SDS011;21236;48.740;-3.446;2022-10-16T03:40:46;8.52;;;1.52;;
35048;SDS011;21236;48.740;-3.446;2022-10-16T03:43:12;3.70;;;1.00;;
35048;SDS011;21236;48.740;-3.446;2022-10-16T03:45:38;3.33;;;1.02;;
35048;SDS011;21236;48.740;-3.446;2022-10-16T03:48:05;2.92;;;0.90;;
35048;SDS011;21236;48.740;-3.446;2022-10-16T03:50:31;4.43;;;0.90;;
35048;SDS011;21236;48.740;-3.446;2022-10-16T03:52:57;6.28;;;1.20;;
35048;SDS011;21236;48.740;-3.446;2022-10-16T03:55:23;6.13;;;0.90;;
35048;SDS011;21236;48.740;-3.446;2022-10-16T03:57:49;5.32;;;1.67;;
35048;SDS011;21236;48.740;-3.446;2022-10-16T04:00:15;3.25;;;1.23;;
35048;SDS011;21236;48.740;-3.446;2022-10-16T04:02:42;6.53;;;0.80;;
35048;SDS011;21236;48.740;-3.446;2022-10-16T04:05:08;6.03;;;1.00;;
35048;SDS011;21236;48.740;-3.446;2022-10-16T04:07:34;10.15;;;1.20;;
35048;SDS011;21236;48.740;-3.446;2022-10-16T04:10:00;6.25;;;1.08;;
35048;SDS011;21236;48.740;-3.446;2022-10-16T04:12:26;6.05;;;1.02;;
35048;SDS011;21236;48.740;-3.446;2022-10-16T04:14:52;2.65;;;0.88;;
35048;SDS011;21236;48.740;-3.446;2022-10-16T04:17:18;4.97;;;0.90;;
35048;SDS011;21236;48.740;-3.446;2022-10-16T04:19:45;5.82;;;0.80;;
35048;SDS011;21236;48.740;-3.446;2022-10-16T04:22:11;5.90;;;0.90;;
35048;SDS011;21236;48.740;-3.446;2022-10-16T04:24:37;4.05;;;2.55;;
35048;SDS011;21236;48.740;-3.446;2022-10-16T04:27:03;2.83;;;1.02;;
35048;SDS011;21236;48.740;-3.446;2022-10-16T04:29:29;6.22;;;0.93;;
35048;SDS011;21236;48.740;-3.446;2022-10-16T04:31:55;7.45;;;0.88;;
35048;SDS011;21236;48.740;-3.446;2022-10-16T04:34:21;6.38;;;1.02;;
35048;SDS011;21236;48.740;-3.446;2022-10-16T04:36:47;3.38;;;0.93;;
35048;SDS011;21236;48.740;-3.446;2022-10-16T04:39:14;5.95;;;1.00;;
35048;SDS011;21236;48.740;-3.446;2022-10-16T04:41:40;11.57;;;1.23;;
35048;SDS011;21236;48.740;-3.446;2022-10-16T04:44:06;7.28;;;1.27;;
35048;SDS011;21236;48.740;-3.446;2022-10-16T04:46:33;9.93;;;0.90;;
35048;SDS011;21236;48.740;-3.446;2022-10-16T04:48:59;0.70;;;0.50;;
35048;SDS011;21236;48.740;-3.446;2022-10-16T04:51:25;6.75;;;0.80;;
35048;SDS011;21236;48.740;-3.446;2022-10-16T04:53:53;4.38;;;0.90;;
35048;SDS011;21236;48.740;-3.446;2022-10-16T04:56:19;9.52;;;1.20;;
35048;SDS011;21236;48.740;-3.446;2022-10-16T04:58:46;11.68;;;1.13;;
35048;SDS011;21236;48.740;-3.446;2022-10-16T05:01:13;5.95;;;1.05;;
35048;SDS011;21236;48.740;-3.446;2022-10-16T05:03:39;3.67;;;0.80;;
35048;SDS011;21236;48.740;-3.446;2022-10-16T05:06:05;5.75;;;1.08;;
35048;SDS011;21236;48.740;-3.446;2022-10-16T05:08:31;15.80;;;1.73;;
35048;SDS011;21236;48.740;-3.446;2022-10-16T05:10:58;8.48;;;1.08;;
35048;SDS011;21236;48.740;-3.446;2022-10-16T05:13:24;5.43;;;1.52;;
35048;SDS011;21236;48.740;-3.446;2022-10-16T05:15:50;3.00;;;0.98;;
35048;SDS011;21236;48.740;-3.446;2022-10-16T05:18:16;5.57;;;0.90;;
35048;SDS011;21236;48.740;-3.446;2022-10-16T05:20:42;5.13;;;0.98;;
35048;SDS011;21236;48.740;-3.446;2022-10-16T05:23:09;4.20;;;0.88;;
35048;SDS011;21236;48.740;-3.446;2022-10-16T05:25:38;3.17;;;1.10;;
35048;SDS011;21236;48.740;-3.446;2022-10-16T05:28:04;7.85;;;1.08;;
35048;SDS011;21236;48.740;-3.446;2022-10-16T05:30:30;8.88;;;1.17;;
35048;SDS011;21236;48.740;-3.446;2022-10-16T05:32:56;5.80;;;1.10;;
35048;SDS011;21236;48.740;-3.446;2022-10-16T05:35:22;9.57;;;1.58;;
35048;SDS011;21236;48.740;-3.446;2022-10-16T05:37:48;6.80;;;1.25;;
35048;SDS011;21236;48.740;-3.446;2022-10-16T05:40:15;4.78;;;0.85;;
35048;SDS011;21236;48.740;-3.446;2022-10-16T05:42:41;6.25;;;1.13;;
35048;SDS011;21236;48.740;-3.446;2022-10-16T05:45:09;3.67;;;0.93;;
35048;SDS011;21236;48.740;-3.446;2022-10-16T05:47:35;6.28;;;1.30;;
35048;SDS011;21236;48.740;-3.446;2022-10-16T05:50:01;6.43;;;1.35;;
35048;SDS011;21236;48.740;-3.446;2022-10-16T05:52:29;7.45;;;1.20;;
35048;SDS011;21236;48.740;-3.446;2022-10-16T05:54:55;8.50;;;2.03;;
35048;SDS011;21236;48.740;-3.446;2022-10-16T05:57:21;5.60;;;2.53;;
35048;SDS011;21236;48.740;-3.446;2022-10-16T05:59:47;5.38;;;1.55;;
35048;SDS011;21236;48.740;-3.446;2022-10-16T06:02:13;5.93;;;1.52;;
35048;SDS011;21236;48.740;-3.446;2022-10-16T06:04:40;9.43;;;1.30;;
35048;SDS011;21236;48.740;-3.446;2022-10-16T06:07:06;6.22;;;1.58;;
35048;SDS011;21236;48.740;-3.446;2022-10-16T06:09:32;5.30;;;1.40;;
35048;SDS011;21236;48.740;-3.446;2022-10-16T06:11:58;5.90;;;1.63;;
35048;SDS011;21236;48.740;-3.446;2022-10-16T06:14:24;9.00;;;1.80;;
35048;SDS011;21236;48.740;-3.446;2022-10-16T06:16:50;11.32;;;1.70;;
35048;SDS011;21236;48.740;-3.446;2022-10-16T06:19:16;7.88;;;2.75;;
35048;SDS011;21236;48.740;-3.446;2022-10-16T06:21:43;9.88;;;1.73;;
35048;SDS011;21236;48.740;-3.446;2022-10-16T06:24:10;9.27;;;2.13;;
35048;SDS011;21236;48.740;-3.446;2022-10-16T06:26:36;9.27;;;2.90;;
35048;SDS011;21236;48.740;-3.446;2022-10-16T06:29:03;18.55;;;5.18;;
35048;SDS011;21236;48.740;-3.446;2022-10-16T06:31:30;7.68;;;4.00;;
35048;SDS011;21236;48.740;-3.446;2022-10-16T06:33:58;13.38;;;3.53;;
35048;SDS011;21236;48.740;-3.446;2022-10-16T06:36:25;9.57;;;3.17;;
35048;SDS011;21236;48.740;-3.446;2022-10-16T06:38:51;14.35;;;2.72;;
35048;SDS011;21236;48.740;-3.446;2022-10-16T06:41:18;18.90;;;3.10;;
35048;SDS011;21236;48.740;-3.446;2022-10-16T06:43:44;12.15;;;2.63;;
35048;SDS011;21236;48.740;-3.446;2022-10-16T06:46:11;33.20;;;3.20;;
35048;SDS011;21236;48.740;-3.446;2022-10-16T06:48:38;34.65;;;3.40;;
35048;SDS011;21236;48.740;-3.446;2022-10-16T06:53:34;26.40;;;3.58;;
35048;SDS011;21236;48.740;-3.446;2022-10-16T06:56:14;26.13;;;3.92;;
35048;SDS011;21236;48.740;-3.446;2022-10-16T06:58:41;21.80;;;3.35;;
35048;SDS011;21236;48.740;-3.446;2022-10-16T07:01:07;45.22;;;3.90;;
35048;SDS011;21236;48.740;-3.446;2022-10-16T07:03:35;53.05;;;3.92;;
35048;SDS011;21236;48.740;-3.446;2022-10-16T07:06:02;50.90;;;4.30;;
35048;SDS011;21236;48.740;-3.446;2022-10-16T07:08:32;49.35;;;3.78;;
35048;SDS011;21236;48.740;-3.446;2022-10-16T07:10:59;65.63;;;4.82;;
35048;SDS011;21236;48.740;-3.446;2022-10-16T07:13:25;48.00;;;4.03;;
35048;SDS011;21236;48.740;-3.446;2022-10-16T07:15:51;49.25;;;3.72;;
35048;SDS011;21236;48.740;-3.446;2022-10-16T07:18:17;41.95;;;3.45;;
35048;SDS011;21236;48.740;-3.446;2022-10-16T07:20:43;66.07;;;4.80;;
35048;SDS011;21236;48.740;-3.446;2022-10-16T07:23:10;50.67;;;4.05;;
35048;SDS011;21236;48.740;-3.446;2022-10-16T07:25:36;61.05;;;4.13;;
35048;SDS011;21236;48.740;-3.446;2022-10-16T07:28:02;37.97;;;3.47;;
35048;SDS011;21236;48.740;-3.446;2022-10-16T07:30:28;19.65;;;2.80;;
35048;SDS011;21236;48.740;-3.446;2022-10-16T07:32:54;8.65;;;2.40;;
35048;SDS011;21236;48.740;-3.446;2022-10-16T07:35:20;28.38;;;5.00;;
35048;SDS011;21236;48.740;-3.446;2022-10-16T07:37:47;9.70;;;2.17;;
35048;SDS011;21236;48.740;-3.446;2022-10-16T07:40:13;32.08;;;3.53;;
35048;SDS011;21236;48.740;-3.446;2022-10-16T07:42:39;25.02;;;3.03;;
35048;SDS011;21236;48.740;-3.446;2022-10-16T07:45:05;25.73;;;2.80;;
35048;SDS011;21236;48.740;-3.446;2022-10-16T07:47:31;8.75;;;2.67;;
35048;SDS011;21236;48.740;-3.446;2022-10-16T07:49:57;15.52;;;3.22;;
35048;SDS011;21236;48.740;-3.446;2022-10-16T07:52:23;8.30;;;2.55;;
35048;SDS011;21236;48.740;-3.446;2022-10-16T07:54:50;4.03;;;2.20;;
35048;SDS011;21236;48.740;-3.446;2022-10-16T07:57:16;7.70;;;2.47;;
35048;SDS011;21236;48.740;-3.446;2022-10-16T07:59:45;6.45;;;2.33;;
35048;SDS011;21236;48.740;-3.446;2022-10-16T08:02:11;10.05;;;2.78;;
35048;SDS011;21236;48.740;-3.446;2022-10-16T08:04:37;3.70;;;2.30;;
35048;SDS011;21236;48.740;-3.446;2022-10-16T08:07:03;8.43;;;2.80;;
35048;SDS011;21236;48.740;-3.446;2022-10-16T08:09:29;7.95;;;2.63;;
35048;SDS011;21236;48.740;-3.446;2022-10-16T08:11:56;9.60;;;3.13;;
35048;SDS011;21236;48.740;-3.446;2022-10-16T08:14:22;7.65;;;3.88;;
35048;SDS011;21236;48.740;-3.446;2022-10-16T08:16:48;5.20;;;2.40;;
35048;SDS011;21236;48.740;-3.446;2022-10-16T08:19:14;8.93;;;3.00;;
35048;SDS011;21236;48.740;-3.446;2022-10-16T08:21:41;7.20;;;2.88;;
35048;SDS011;21236;48.740;-3.446;2022-10-16T08:24:07;9.52;;;2.70;;
35048;SDS011;21236;48.740;-3.446;2022-10-16T08:26:33;8.10;;;2.88;;
35048;SDS011;21236;48.740;-3.446;2022-10-16T08:28:59;5.50;;;2.85;;
35048;SDS011;21236;48.740;-3.446;2022-10-16T08:31:25;7.25;;;2.80;;
35048;SDS011;21236;48.740;-3.446;2022-10-16T08:33:52;10.32;;;2.75;;
35048;SDS011;21236;48.740;-3.446;2022-10-16T08:36:18;14.05;;;2.50;;
35048;SDS011;21236;48.740;-3.446;2022-10-16T08:38:47;5.18;;;2.75;;
35048;SDS011;21236;48.740;-3.446;2022-10-16T08:43:43;7.18;;;2.88;;
35048;SDS011;21236;48.740;-3.446;2022-10-16T08:48:48;8.65;;;3.05;;
35048;SDS011;21236;48.740;-3.446;2022-10-16T08:51:19;9.75;;;3.15;;
35048;SDS011;21236;48.740;-3.446;2022-10-16T08:53:57;11.30;;;3.30;;
35048;SDS011;21236;48.740;-3.446;2022-10-16T08:56:24;9.68;;;3.67;;
35048;SDS011;21236;48.740;-3.446;2022-10-16T08:58:51;12.13;;;3.50;;
35048;SDS011;21236;48.740;-3.446;2022-10-16T09:01:18;10.98;;;3.42;;
35048;SDS011;21236;48.740;-3.446;2022-10-16T09:11:34;11.63;;;3.42;;
35048;SDS011;21236;48.740;-3.446;2022-10-16T09:16:56;12.60;;;3.95;;
35048;SDS011;21236;48.740;-3.446;2022-10-16T09:19:27;12.95;;;3.92;;
35048;SDS011;21236;48.740;-3.446;2022-10-16T09:21:53;13.88;;;4.25;;
35048;SDS011;21236;48.740;-3.446;2022-10-16T09:24:20;12.82;;;3.75;;
35048;SDS011;21236;48.740;-3.446;2022-10-16T09:26:49;14.32;;;4.65;;
35048;SDS011;21236;48.740;-3.446;2022-10-16T09:29:15;6.50;;;3.10;;
35048;SDS011;21236;48.740;-3.446;2022-10-16T09:31:42;11.10;;;3.33;;
35048;SDS011;21236;48.740;-3.446;2022-10-16T09:36:53;9.73;;;3.53;;
35048;SDS011;21236;48.740;-3.446;2022-10-16T09:39:19;9.20;;;3.35;;
35048;SDS011;21236;48.740;-3.446;2022-10-16T09:41:45;7.20;;;3.00;;
35048;SDS011;21236;48.740;-3.446;2022-10-16T09:46:44;11.25;;;3.05;;
35048;SDS011;21236;48.740;-3.446;2022-10-16T09:49:23;6.78;;;2.63;;
35048;SDS011;21236;48.740;-3.446;2022-10-16T09:51:50;10.63;;;3.08;;
35048;SDS011;21236;48.740;-3.446;2022-10-16T09:54:17;8.88;;;2.65;;
35048;SDS011;21236;48.740;-3.446;2022-10-16T09:56:44;11.98;;;2.67;;
35048;SDS011;21236;48.740;-3.446;2022-10-16T09:59:12;11.15;;;3.20;;
35048;SDS011;21236;48.740;-3.446;2022-10-16T10:01:39;9.20;;;3.38;;
35048;SDS011;21236;48.740;-3.446;2022-10-16T10:04:06;7.10;;;3.25;;
35048;SDS011;21236;48.740;-3.446;2022-10-16T10:06:34;6.63;;;2.90;;
35048;SDS011;21236;48.740;-3.446;2022-10-16T10:09:13;11.65;;;3.88;;
35048;SDS011;21236;48.740;-3.446;2022-10-16T10:12:00;15.00;;;3.97;;
35048;SDS011;21236;48.740;-3.446;2022-10-16T10:14:30;7.35;;;2.08;;
35048;SDS011;21236;48.740;-3.446;2022-10-16T10:19:37;5.38;;;1.33;;
35048;SDS011;21236;48.740;-3.446;2022-10-16T10:22:13;7.78;;;2.03;;
35048;SDS011;21236;48.740;-3.446;2022-10-16T10:24:39;8.30;;;1.98;;
35048;SDS011;21236;48.740;-3.446;2022-10-16T10:27:09;7.47;;;1.70;;
35048;SDS011;21236;48.740;-3.446;2022-10-16T10:30:19;9.43;;;1.80;;
35048;SDS011;21236;48.740;-3.446;2022-10-16T10:32:38;7.00;;;3.00;;
35048;SDS011;21236;48.740;-3.446;2022-10-16T10:35:13;4.72;;;2.40;;
35048;SDS011;21236;48.740;-3.446;2022-10-16T10:37:43;8.30;;;3.17;;
35048;SDS011;21236;48.740;-3.446;2022-10-16T10:45:28;13.05;;;4.28;;
35048;SDS011;21236;48.740;-3.446;2022-10-16T10:56:07;6.50;;;2.50;;
35048;SDS011;21236;48.740;-3.446;2022-10-16T11:06:17;7.90;;;2.60;;
35048;SDS011;21236;48.740;-3.446;2022-10-16T11:09:36;12.23;;;4.78;;
35048;SDS011;21236;48.740;-3.446;2022-10-16T11:11:43;11.75;;;3.70;;
35048;SDS011;21236;48.740;-3.446;2022-10-16T11:16:44;17.83;;;3.03;;
35048;SDS011;21236;48.740;-3.446;2022-10-16T11:21:44;6.30;;;3.17;;
35048;SDS011;21236;48.740;-3.446;2022-10-16T11:24:23;8.63;;;2.75;;
35048;SDS011;21236;48.740;-3.446;2022-10-16T11:26:49;8.32;;;3.92;;
35048;SDS011;21236;48.740;-3.446;2022-10-16T11:29:19;6.72;;;3.03;;
35048;SDS011;21236;48.740;-3.446;2022-10-16T11:31:47;8.15;;;3.50;;
35048;SDS011;21236;48.740;-3.446;2022-10-16T11:39:27;12.50;;;9.95;;
35048;SDS011;21236;48.740;-3.446;2022-10-16T11:41:54;30.05;;;18.67;;
35048;SDS011;21236;48.740;-3.446;2022-10-16T11:49:38;9.98;;;3.85;;
35048;SDS011;21236;48.740;-3.446;2022-10-16T11:52:13;8.57;;;3.75;;
35048;SDS011;21236;48.740;-3.446;2022-10-16T11:57:27;9.40;;;3.42;;
35048;SDS011;21236;48.740;-3.446;2022-10-16T11:59:55;7.22;;;4.45;;
35048;SDS011;21236;48.740;-3.446;2022-10-16T12:07:39;16.98;;;4.35;;
35048;SDS011;21236;48.740;-3.446;2022-10-16T12:10:18;9.18;;;3.30;;
35048;SDS011;21236;48.740;-3.446;2022-10-16T12:12:45;18.77;;;6.82;;
35048;SDS011;21236;48.740;-3.446;2022-10-16T12:17:43;11.60;;;4.07;;
35048;SDS011;21236;48.740;-3.446;2022-10-16T12:25:35;9.85;;;3.75;;
35048;SDS011;21236;48.740;-3.446;2022-10-16T12:28:06;6.20;;;3.28;;
35048;SDS011;21236;48.740;-3.446;2022-10-16T12:30:34;7.13;;;2.65;;
35048;SDS011;21236;48.740;-3.446;2022-10-16T12:33:06;8.85;;;2.53;;
35048;SDS011;21236;48.740;-3.446;2022-10-16T12:35:43;4.07;;;2.00;;
35048;SDS011;21236;48.740;-3.446;2022-10-16T12:38:19;6.13;;;1.50;;
35048;SDS011;21236;48.740;-3.446;2022-10-16T12:40:47;5.50;;;1.70;;
35048;SDS011;21236;48.740;-3.446;2022-10-16T12:45:46;5.22;;;1.73;;
35048;SDS011;21236;48.740;-3.446;2022-10-16T12:48:19;7.50;;;2.35;;
35048;SDS011;21236;48.740;-3.446;2022-10-16T12:50:46;17.45;;;7.95;;
35048;SDS011;21236;48.740;-3.446;2022-10-16T12:53:20;7.20;;;3.20;;
35048;SDS011;21236;48.740;-3.446;2022-10-16T12:55:51;5.22;;;2.35;;
35048;SDS011;21236;48.740;-3.446;2022-10-16T12:58:53;2.73;;;2.13;;
35048;SDS011;21236;48.740;-3.446;2022-10-16T13:01:14;2.15;;;1.63;;
35048;SDS011;21236;48.740;-3.446;2022-10-16T13:06:44;5.63;;;1.90;;
35048;SDS011;21236;48.740;-3.446;2022-10-16T13:11:57;2.50;;;1.77;;
35048;SDS011;21236;48.740;-3.446;2022-10-16T13:14:29;7.97;;;3.20;;
35048;SDS011;21236;48.740;-3.446;2022-10-16T13:17:03;3.75;;;1.23;;
35048;SDS011;21236;48.740;-3.446;2022-10-16T13:29:41;3.63;;;1.95;;
35048;SDS011;21236;48.740;-3.446;2022-10-16T13:32:08;3.22;;;1.50;;
35048;SDS011;21236;48.740;-3.446;2022-10-16T13:34:44;2.10;;;1.50;;
35048;SDS011;21236;48.740;-3.446;2022-10-16T13:37:17;5.18;;;2.20;;
35048;SDS011;21236;48.740;-3.446;2022-10-16T13:39:44;2.10;;;1.35;;
35048;SDS011;21236;48.740;-3.446;2022-10-16T13:42:17;2.25;;;1.88;;
35048;SDS011;21236;48.740;-3.446;2022-10-16T13:47:15;1.70;;;1.08;;
35048;SDS011;21236;48.740;-3.446;2022-10-16T13:49:41;3.35;;;1.20;;
35048;SDS011;21236;48.740;-3.446;2022-10-16T13:52:15;3.00;;;1.42;;
35048;SDS011;21236;48.740;-3.446;2022-10-16T13:54:42;2.75;;;1.25;;
35048;SDS011;21236;48.740;-3.446;2022-10-16T13:57:11;1.80;;;1.05;;
35048;SDS011;21236;48.740;-3.446;2022-10-16T13:59:38;1.77;;;1.23;;
35048;SDS011;21236;48.740;-3.446;2022-10-16T14:02:16;1.73;;;1.42;;
35048;SDS011;21236;48.740;-3.446;2022-10-16T14:04:44;1.55;;;0.80;;
35048;SDS011;21236;48.740;-3.446;2022-10-16T14:07:13;1.77;;;0.90;;
35048;SDS011;21236;48.740;-3.446;2022-10-16T14:09:40;2.40;;;0.82;;
35048;SDS011;21236;48.740;-3.446;2022-10-16T14:12:10;4.18;;;1.08;;
35048;SDS011;21236;48.740;-3.446;2022-10-16T14:14:41;3.65;;;0.93;;
35048;SDS011;21236;48.740;-3.446;2022-10-16T14:17:13;5.13;;;1.20;;
35048;SDS011;21236;48.740;-3.446;2022-10-16T14:19:39;3.43;;;0.80;;
35048;SDS011;21236;48.740;-3.446;2022-10-16T14:22:17;4.15;;;0.93;;
35048;SDS011;21236;48.740;-3.446;2022-10-16T14:24:47;3.70;;;1.45;;
35048;SDS011;21236;48.740;-3.446;2022-10-16T14:32:41;22.13;;;10.63;;
35048;SDS011;21236;48.740;-3.446;2022-10-16T14:35:27;11.88;;;5.25;;
35048;SDS011;21236;48.740;-3.446;2022-10-16T14:37:54;4.32;;;1.58;;
35048;SDS011;21236;48.740;-3.446;2022-10-16T14:40:25;5.38;;;2.65;;
35048;SDS011;21236;48.740;-3.446;2022-10-16T14:42:52;1.45;;;1.35;;
35048;SDS011;21236;48.740;-3.446;2022-10-16T14:45:19;6.03;;;3.63;;
35048;SDS011;21236;48.740;-3.446;2022-10-16T14:47:55;3.50;;;1.88;;
35048;SDS011;21236;48.740;-3.446;2022-10-16T14:50:23;4.55;;;1.13;;
35048;SDS011;21236;48.740;-3.446;2022-10-16T14:52:49;3.13;;;1.00;;
35048;SDS011;21236;48.740;-3.446;2022-10-16T14:55:16;4.15;;;1.17;;
35048;SDS011;21236;48.740;-3.446;2022-10-16T14:57:42;1.50;;;1.38;;
35048;SDS011;21236;48.740;-3.446;2022-10-16T15:00:30;2.22;;;1.60;;
35048;SDS011;21236;48.740;-3.446;2022-10-16T15:02:55;2.70;;;0.95;;
35048;SDS011;21236;48.740;-3.446;2022-10-16T15:05:23;3.05;;;1.38;;
35048;SDS011;21236;48.740;-3.446;2022-10-16T15:07:50;1.95;;;0.93;;
35048;SDS011;21236;48.740;-3.446;2022-10-16T15:10:17;2.13;;;1.08;;
35048;SDS011;21236;48.740;-3.446;2022-10-16T15:12:44;3.58;;;1.42;;
35048;SDS011;21236;48.740;-3.446;2022-10-16T15:17:57;2.40;;;1.33;;
35048;SDS011;21236;48.740;-3.446;2022-10-16T15:20:33;4.40;;;1.33;;
35048;SDS011;21236;48.740;-3.446;2022-10-16T15:23:04;3.53;;;1.17;;
35048;SDS011;21236;48.740;-3.446;2022-10-16T15:25:39;1.80;;;0.93;;
35048;SDS011;21236;48.740;-3.446;2022-10-16T15:28:07;4.00;;;1.25;;
35048;SDS011;21236;48.740;-3.446;2022-10-16T15:30:34;3.83;;;1.58;;
35048;SDS011;21236;48.740;-3.446;2022-10-16T15:33:00;2.75;;;1.40;;
35048;SDS011;21236;48.740;-3.446;2022-10-16T15:35:27;2.60;;;1.10;;
35048;SDS011;21236;48.740;-3.446;2022-10-16T15:37:53;17.73;;;2.10;;
35048;SDS011;21236;48.740;-3.446;2022-10-16T15:40:20;2.15;;;1.40;;
35048;SDS011;21236;48.740;-3.446;2022-10-16T15:42:46;5.75;;;1.60;;
35048;SDS011;21236;48.740;-3.446;2022-10-16T15:45:12;1.45;;;1.23;;
35048;SDS011;21236;48.740;-3.446;2022-10-16T15:47:40;3.10;;;1.58;;
35048;SDS011;21236;48.740;-3.446;2022-10-16T15:50:06;2.30;;;1.40;;
35048;SDS011;21236;48.740;-3.446;2022-10-16T15:52:33;2.70;;;1.27;;
35048;SDS011;21236;48.740;-3.446;2022-10-16T15:54:59;2.58;;;1.20;;
35048;SDS011;21236;48.740;-3.446;2022-10-16T15:57:25;2.92;;;1.30;;
35048;SDS011;21236;48.740;-3.446;2022-10-16T15:59:53;2.83;;;1.48;;
35048;SDS011;21236;48.740;-3.446;2022-10-16T16:02:19;3.28;;;1.58;;
35048;SDS011;21236;48.740;-3.446;2022-10-16T16:04:45;2.50;;;1.30;;
35048;SDS011;21236;48.740;-3.446;2022-10-16T16:07:11;2.67;;;1.23;;
35048;SDS011;21236;48.740;-3.446;2022-10-16T16:09:37;1.45;;;1.10;;
35048;SDS011;21236;48.740;-3.446;2022-10-16T16:12:03;3.78;;;1.52;;
35048;SDS011;21236;48.740;-3.446;2022-10-16T16:14:30;7.28;;;1.58;;
35048;SDS011;21236;48.740;-3.446;2022-10-16T16:16:56;5.05;;;1.83;;
35048;SDS011;21236;48.740;-3.446;2022-10-16T16:19:23;3.95;;;1.40;;
35048;SDS011;21236;48.740;-3.446;2022-10-16T16:21:49;2.75;;;1.10;;
35048;SDS011;21236;48.740;-3.446;2022-10-16T16:24:16;4.78;;;1.23;;
35048;SDS011;21236;48.740;-3.446;2022-10-16T16:26:42;2.00;;;1.10;;
35048;SDS011;21236;48.740;-3.446;2022-10-16T16:29:11;4.78;;;1.23;;
35048;SDS011;21236;48.740;-3.446;2022-10-16T16:31:38;2.05;;;1.25;;
35048;SDS011;21236;48.740;-3.446;2022-10-16T16:34:05;4.15;;;1.27;;
35048;SDS011;21236;48.740;-3.446;2022-10-16T16:36:31;3.22;;;1.05;;
35048;SDS011;21236;48.740;-3.446;2022-10-16T16:38:57;4.97;;;1.08;;